createdAt,value
2017-09-23T00:00:09.884Z,33.93
2017-09-23T00:02:10.845Z,28.97
2017-09-23T00:04:11.809Z,25.27
2017-09-23T00:06:13.500Z,29.90
2017-09-23T00:08:14.440Z,31.00
2017-09-23T00:10:15.413Z,45.30
2017-09-23T00:12:16.701Z,31.90
2017-09-23T00:14:17.733Z,24.50
2017-09-23T00:16:18.693Z,25.48
2017-09-23T00:18:19.640Z,25.13
2017-09-23T00:20:21.344Z,23.37
2017-09-23T00:22:22.296Z,34.43
2017-09-23T00:24:23.261Z,28.20
2017-09-23T00:26:24.209Z,22.37
2017-09-23T00:28:25.168Z,22.90
2017-09-23T00:30:26.149Z,23.53
2017-09-23T00:32:27.852Z,30.77
2017-09-23T00:34:28.824Z,34.53
2017-09-23T00:36:29.767Z,22.00
2017-09-23T00:38:30.728Z,28.60
2017-09-23T00:40:31.697Z,25.20
2017-09-23T00:42:33.421Z,22.87
2017-09-23T00:44:34.403Z,28.63
2017-09-23T00:46:36.108Z,25.90
2017-09-23T00:48:37.076Z,34.23
2017-09-23T00:50:38.073Z,25.77
2017-09-23T00:52:39.057Z,25.70
2017-09-23T00:54:40.049Z,26.57
2017-09-23T00:56:41.761Z,24.57
2017-09-23T00:58:42.717Z,23.90
2017-09-23T01:00:43.691Z,30.00
2017-09-23T01:02:45.388Z,31.93
2017-09-23T01:04:46.353Z,22.80
2017-09-23T01:06:47.329Z,25.30
2017-09-23T01:08:48.292Z,25.03
2017-09-23T01:10:50.009Z,33.07
2017-09-23T01:13:05.937Z,26.67
2017-09-23T01:15:06.897Z,38.57
2017-09-23T01:17:07.874Z,27.10
2017-09-23T01:19:08.882Z,21.83
2017-09-23T01:21:09.856Z,31.40
2017-09-23T01:23:11.584Z,24.80
2017-09-23T01:27:24.792Z,26.13
2017-09-23T01:29:25.728Z,26.67
2017-09-23T01:31:26.701Z,34.10
2017-09-23T01:33:27.754Z,38.63
2017-09-23T01:35:29.499Z,27.07
2017-09-23T01:37:30.458Z,26.83
2017-09-23T01:39:32.171Z,25.40
2017-09-23T01:41:33.140Z,32.13
2017-09-23T01:43:34.081Z,39.30
2017-09-23T01:45:35.046Z,31.03
2017-09-23T01:47:36.832Z,27.93
2017-09-23T01:49:37.822Z,41.60
2017-09-23T01:51:38.766Z,33.78
2017-09-23T01:53:40.481Z,32.33
2017-09-23T01:55:41.439Z,27.60
2017-09-23T01:57:42.425Z,35.30
2017-09-23T01:59:44.177Z,38.93
2017-09-23T02:01:46.014Z,29.47
2017-09-23T02:03:46.948Z,37.97
2017-09-23T02:05:48.009Z,30.97
2017-09-23T02:07:49.717Z,32.43
2017-09-23T02:09:51.068Z,35.33
2017-09-23T02:11:52.037Z,42.57
2017-09-23T02:13:53.001Z,30.57
2017-09-23T02:15:54.703Z,33.83
2017-09-23T02:17:55.698Z,37.70
2017-09-23T02:19:56.657Z,34.47
2017-09-23T02:21:57.648Z,29.40
2017-09-23T02:23:58.621Z,29.70
2017-09-23T02:25:59.592Z,26.50
2017-09-23T02:28:00.560Z,27.23
2017-09-23T02:30:01.517Z,31.20
2017-09-23T02:32:02.476Z,28.23
2017-09-23T02:34:03.445Z,34.80
2017-09-23T02:36:04.412Z,35.17
2017-09-23T02:38:05.382Z,40.97
2017-09-23T02:40:07.076Z,30.10
2017-09-23T02:42:08.033Z,36.30
2017-09-23T02:44:09.010Z,27.93
2017-09-23T02:46:09.965Z,32.37
2017-09-23T02:48:10.933Z,25.50
2017-09-23T02:50:12.633Z,41.57
2017-09-23T02:52:13.607Z,27.40
2017-09-23T02:54:14.585Z,32.33
2017-09-23T02:56:16.293Z,27.03
2017-09-23T02:58:18.004Z,26.90
2017-09-23T03:00:19.716Z,36.70
2017-09-23T03:02:20.670Z,36.90
2017-09-23T03:04:21.632Z,25.83
2017-09-23T03:06:22.599Z,31.90
2017-09-23T03:08:24.313Z,43.83
2017-09-23T03:10:25.276Z,33.10
2017-09-23T03:12:26.238Z,35.50
2017-09-23T03:14:27.213Z,31.07
2017-09-23T03:16:28.913Z,30.40
2017-09-23T03:18:29.880Z,29.87
2017-09-23T03:20:31.597Z,36.73
2017-09-23T03:22:32.556Z,40.50
2017-09-23T03:24:33.517Z,33.07
2017-09-23T03:26:34.477Z,31.13
2017-09-23T03:28:35.467Z,37.37
2017-09-23T03:30:37.169Z,32.40
2017-09-23T03:32:38.136Z,38.73
2017-09-23T03:34:39.105Z,33.60
2017-09-23T03:36:40.068Z,31.60
2017-09-23T03:38:41.786Z,31.33
2017-09-23T03:40:43.484Z,26.73
2017-09-23T03:42:44.510Z,31.00
2017-09-23T03:44:45.464Z,32.20
2017-09-23T03:46:46.425Z,32.70
2017-09-23T03:48:47.377Z,35.40
2017-09-23T03:50:49.086Z,36.03
2017-09-23T03:52:50.040Z,28.73
2017-09-23T03:54:51.003Z,30.90
2017-09-23T03:56:52.007Z,32.22
2017-09-23T03:58:52.969Z,33.97
2017-09-23T04:00:53.956Z,34.73
2017-09-23T04:02:54.895Z,27.30
2017-09-23T04:04:55.860Z,32.97
2017-09-23T04:06:57.556Z,41.07
2017-09-23T04:08:58.513Z,31.07
2017-09-23T04:10:59.473Z,31.17
2017-09-23T04:13:00.425Z,30.13
2017-09-23T04:15:02.129Z,36.70
2017-09-23T04:17:03.844Z,33.23
2017-09-23T04:19:04.801Z,30.87
2017-09-23T04:21:06.509Z,40.67
2017-09-23T04:23:08.218Z,45.67
2017-09-23T04:25:09.170Z,35.80
2017-09-23T04:27:10.134Z,36.90
2017-09-23T04:29:11.183Z,35.50
2017-09-23T04:31:12.145Z,34.33
2017-09-23T04:33:13.849Z,30.40
2017-09-23T04:35:14.800Z,27.90
2017-09-23T04:37:15.756Z,41.70
2017-09-23T04:39:16.717Z,41.03
2017-09-23T04:41:17.679Z,26.37
2017-09-23T04:43:18.632Z,34.47
2017-09-23T04:45:20.339Z,26.73
2017-09-23T04:47:21.303Z,27.87
2017-09-23T04:49:22.249Z,30.17
2017-09-23T04:51:23.217Z,29.67
2017-09-23T04:53:24.174Z,33.93
2017-09-23T04:55:25.127Z,42.47
2017-09-23T04:57:26.834Z,38.17
2017-09-23T04:59:27.789Z,36.83
2017-09-23T05:01:28.745Z,47.17
2017-09-23T05:03:29.701Z,40.17
2017-09-23T05:05:30.652Z,43.20
2017-09-23T05:07:31.608Z,49.00
2017-09-23T05:09:32.551Z,44.47
2017-09-23T05:11:33.509Z,48.00
2017-09-23T05:13:35.202Z,44.60
2017-09-23T05:15:36.156Z,49.60
2017-09-23T05:17:37.117Z,42.63
2017-09-23T05:19:38.058Z,50.03
2017-09-23T05:21:39.025Z,47.13
2017-09-23T05:23:40.710Z,55.13
2017-09-23T05:25:41.652Z,55.77
2017-09-23T05:27:42.604Z,43.63
2017-09-23T05:29:44.293Z,57.70
2017-09-23T05:31:45.245Z,45.00
2017-09-23T05:33:46.189Z,43.27
2017-09-23T05:35:47.137Z,43.80
2017-09-23T05:39:55.893Z,48.63
2017-09-23T05:41:56.845Z,52.80
2017-09-23T05:43:57.792Z,47.30
2017-09-23T05:45:58.748Z,45.43
2017-09-23T05:47:59.708Z,51.43
2017-09-23T05:50:00.676Z,60.23
2017-09-23T05:52:01.624Z,58.20
2017-09-23T05:54:02.584Z,58.53
2017-09-23T05:56:04.272Z,60.03
2017-09-23T05:58:05.222Z,56.50
2017-09-23T06:00:06.175Z,55.53
2017-09-23T06:02:07.138Z,63.10
2017-09-23T06:04:08.085Z,70.47
2017-09-23T06:06:09.029Z,75.30
2017-09-23T06:08:10.001Z,63.20
2017-09-23T06:10:10.960Z,86.27
2017-09-23T06:12:12.649Z,112.73
2017-09-23T06:14:13.601Z,119.30
2017-09-23T06:16:14.548Z,120.53
2017-09-23T06:18:15.517Z,124.63
2017-09-23T06:20:16.464Z,137.57
2017-09-23T06:22:17.413Z,138.93
2017-09-23T06:24:18.373Z,147.23
2017-09-23T06:26:19.333Z,150.20
2017-09-23T06:28:20.272Z,155.13
2017-09-23T06:30:21.241Z,164.93
2017-09-23T06:32:22.192Z,157.40
2017-09-23T06:34:23.909Z,149.00
2017-09-23T06:36:24.860Z,158.53
2017-09-23T06:38:25.817Z,156.73
2017-09-23T06:40:26.805Z,150.70
2017-09-23T06:42:27.769Z,159.97
2017-09-23T06:44:28.717Z,149.30
2017-09-23T06:46:29.669Z,159.97
2017-09-23T06:48:30.632Z,152.77
2017-09-23T06:50:31.593Z,143.80
2017-09-23T06:52:32.548Z,159.87
2017-09-23T06:54:33.504Z,145.20
2017-09-23T06:56:35.198Z,149.40
2017-09-23T06:58:36.141Z,155.63
2017-09-23T07:00:37.100Z,151.03
2017-09-23T07:02:38.078Z,138.30
2017-09-23T07:04:39.028Z,135.40
2017-09-23T07:06:39.991Z,152.10
2017-09-23T07:08:41.701Z,141.83
2017-09-23T07:10:42.652Z,145.47
2017-09-23T07:12:43.601Z,158.73
2017-09-23T07:14:44.572Z,163.73
2017-09-23T07:16:45.525Z,163.87
2017-09-23T07:18:46.473Z,156.47
2017-09-23T07:20:47.430Z,164.73
2017-09-23T07:22:49.134Z,180.80
2017-09-23T07:24:50.097Z,179.10
2017-09-23T07:26:58.061Z,156.23
2017-09-23T07:28:59.797Z,162.40
2017-09-23T07:31:00.744Z,153.10
2017-09-23T07:33:01.700Z,140.63
2017-09-23T07:35:02.657Z,150.00
2017-09-23T07:37:04.350Z,163.97
2017-09-23T07:39:05.304Z,152.70
2017-09-23T07:41:06.248Z,162.20
2017-09-23T07:43:07.193Z,146.17
2017-09-23T07:45:08.216Z,150.70
2017-09-23T07:47:09.178Z,167.97
2017-09-23T07:49:10.125Z,168.63
2017-09-23T07:51:11.093Z,141.80
2017-09-23T07:53:12.797Z,147.63
2017-09-23T07:55:13.746Z,149.37
2017-09-23T07:57:15.452Z,154.53
2017-09-23T07:59:16.398Z,146.00
2017-09-23T08:01:17.356Z,154.00
2017-09-23T08:03:18.304Z,166.63
2017-09-23T08:05:19.260Z,158.90
2017-09-23T08:07:20.212Z,172.53
2017-09-23T08:09:21.156Z,175.47
2017-09-23T08:11:22.113Z,165.40
2017-09-23T08:13:23.081Z,163.10
2017-09-23T08:15:24.796Z,167.80
2017-09-23T08:17:25.765Z,183.50
2017-09-23T08:19:26.717Z,187.50
2017-09-23T08:21:27.664Z,187.60
2017-09-23T08:23:28.628Z,203.83
2017-09-23T08:25:30.316Z,199.90
2017-09-23T08:27:31.268Z,195.30
2017-09-23T08:29:32.214Z,197.43
2017-09-23T08:31:33.164Z,190.20
2017-09-23T08:33:34.117Z,208.70
2017-09-23T08:35:35.812Z,206.53
2017-09-23T08:37:36.773Z,200.90
2017-09-23T08:39:38.477Z,198.73
2017-09-23T08:41:39.420Z,209.50
2017-09-23T08:43:40.368Z,192.30
2017-09-23T08:45:41.332Z,218.97
2017-09-23T08:47:42.289Z,204.60
2017-09-23T08:49:43.228Z,210.00
2017-09-23T08:51:44.184Z,198.27
2017-09-23T08:53:45.145Z,198.83
2017-09-23T08:55:46.102Z,196.10
2017-09-23T08:57:47.791Z,192.57
2017-09-23T08:59:48.748Z,190.17
2017-09-23T09:01:49.692Z,206.23
2017-09-23T09:03:50.645Z,194.23
2017-09-23T09:05:51.608Z,190.17
2017-09-23T09:07:52.556Z,188.83
2017-09-23T09:09:53.508Z,194.17
2017-09-23T09:11:54.467Z,202.13
2017-09-23T09:13:56.190Z,189.90
2017-09-23T09:15:57.132Z,202.00
2017-09-23T09:17:58.087Z,189.77
2017-09-23T09:19:59.049Z,184.07
2017-09-23T09:22:07.013Z,199.53
2017-09-23T09:24:07.961Z,196.40
2017-09-23T09:26:08.913Z,200.03
2017-09-23T09:28:09.866Z,197.67
2017-09-23T09:30:10.812Z,195.43
2017-09-23T09:32:11.757Z,210.03
2017-09-23T09:34:12.708Z,195.90
2017-09-23T09:36:13.673Z,186.20
2017-09-23T09:38:14.640Z,193.97
2017-09-23T09:40:15.597Z,189.37
2017-09-23T09:42:17.301Z,175.87
2017-09-23T09:44:18.260Z,174.63
2017-09-23T09:46:19.210Z,173.63
2017-09-23T09:48:20.181Z,180.17
2017-09-23T09:50:21.133Z,169.70
2017-09-23T09:52:22.106Z,176.80
2017-09-23T09:54:23.805Z,171.87
2017-09-23T09:56:24.756Z,174.40
2017-09-23T09:58:25.708Z,163.63
2017-09-23T10:00:26.669Z,175.70
2017-09-23T10:02:27.625Z,167.23
2017-09-23T10:04:28.577Z,161.50
2017-09-23T10:06:29.533Z,168.83
2017-09-23T10:08:31.229Z,156.13
2017-09-23T10:10:32.205Z,164.13
2017-09-23T10:12:46.056Z,150.77
2017-09-23T10:14:47.012Z,156.30
2017-09-23T10:16:47.961Z,144.90
2017-09-23T10:18:48.911Z,142.13
2017-09-23T10:20:49.873Z,143.25
2017-09-23T10:22:51.564Z,147.10
2017-09-23T10:24:52.524Z,138.03
2017-09-23T10:26:53.508Z,146.30
2017-09-23T10:28:54.460Z,139.73
2017-09-23T10:30:55.417Z,127.97
2017-09-23T10:32:56.374Z,127.43
2017-09-23T10:34:58.078Z,134.43
2017-09-23T10:36:59.029Z,129.30
2017-09-23T10:38:59.977Z,137.80
2017-09-23T10:41:00.936Z,144.23
2017-09-23T10:43:01.901Z,147.33
2017-09-23T10:45:02.854Z,142.93
2017-09-23T10:47:04.548Z,147.20
2017-09-23T10:49:05.488Z,145.73
2017-09-23T10:51:06.440Z,152.23
2017-09-23T10:53:07.399Z,148.83
2017-09-23T10:55:08.361Z,165.27
2017-09-23T10:57:09.313Z,145.90
2017-09-23T10:59:10.260Z,146.23
2017-09-23T11:01:11.208Z,154.13
2017-09-23T11:03:12.156Z,161.77
2017-09-23T11:05:13.133Z,143.90
2017-09-23T11:07:14.089Z,155.27
2017-09-23T11:09:15.791Z,155.50
2017-09-23T11:11:16.756Z,154.23
2017-09-23T11:13:17.717Z,165.30
2017-09-23T11:15:18.665Z,151.13
2017-09-23T11:17:19.609Z,159.57
2017-09-23T11:19:20.557Z,142.60
2017-09-23T11:21:21.513Z,143.07
2017-09-23T11:23:23.246Z,126.20
2017-09-23T11:25:24.189Z,133.10
2017-09-23T11:27:25.585Z,125.20
2017-09-23T11:29:26.531Z,150.40
2017-09-23T11:31:28.221Z,133.73
2017-09-23T11:33:29.166Z,135.10
2017-09-23T11:35:30.116Z,131.20
2017-09-23T11:37:31.076Z,135.50
2017-09-23T11:39:32.037Z,131.27
2017-09-23T11:41:32.995Z,133.87
2017-09-23T11:43:33.953Z,141.30
2017-09-23T11:45:34.900Z,135.30
2017-09-23T11:47:35.853Z,147.50
2017-09-23T11:49:37.552Z,144.50
2017-09-23T11:51:38.508Z,135.27
2017-09-23T11:53:39.470Z,136.03
2017-09-23T11:55:40.421Z,142.33
2017-09-23T11:57:41.373Z,135.07
2017-09-23T11:59:42.348Z,136.50
2017-09-23T12:01:43.298Z,128.07
2017-09-23T12:03:44.992Z,133.70
2017-09-23T12:05:45.932Z,145.37
2017-09-23T12:07:46.885Z,135.10
2017-09-23T12:09:47.844Z,133.17
2017-09-23T12:11:48.801Z,125.80
2017-09-23T12:13:49.749Z,124.50
2017-09-23T12:15:50.696Z,129.87
2017-09-23T12:17:51.661Z,128.70
2017-09-23T12:19:52.617Z,122.03
2017-09-23T12:21:53.567Z,135.00
2017-09-23T12:23:54.526Z,133.17
2017-09-23T12:25:56.207Z,145.40
2017-09-23T12:27:57.170Z,128.27
2017-09-23T12:29:58.116Z,130.80
2017-09-23T12:31:59.057Z,118.50
2017-09-23T12:34:00.017Z,120.70
2017-09-23T12:36:00.957Z,104.80
2017-09-23T12:38:01.917Z,102.73
2017-09-23T12:40:02.889Z,113.43
2017-09-23T12:42:03.874Z,116.67
2017-09-23T12:44:04.829Z,106.33
2017-09-23T12:46:05.771Z,111.10
2017-09-23T12:48:06.712Z,108.57
2017-09-23T12:50:07.676Z,104.33
2017-09-23T12:52:08.634Z,101.20
2017-09-23T12:54:09.581Z,98.63
2017-09-23T12:56:10.532Z,93.60
2017-09-23T12:58:11.493Z,92.53
2017-09-23T13:00:12.445Z,74.60
2017-09-23T13:02:13.389Z,70.60
2017-09-23T13:04:14.339Z,82.67
2017-09-23T13:06:15.284Z,70.27
2017-09-23T13:08:16.221Z,82.60
2017-09-23T13:10:17.164Z,83.50
2017-09-23T13:12:18.109Z,76.80
2017-09-23T13:14:19.077Z,82.50
2017-09-23T13:16:20.761Z,78.27
2017-09-23T13:18:21.712Z,76.67
2017-09-23T13:20:22.668Z,66.87
2017-09-23T13:22:23.618Z,66.73
2017-09-23T13:24:24.565Z,63.43
2017-09-23T13:26:25.532Z,58.43
2017-09-23T13:28:26.525Z,65.40
2017-09-23T13:30:28.225Z,57.20
2017-09-23T13:32:30.225Z,43.53
2017-09-23T13:34:31.177Z,44.77
2017-09-23T13:36:32.129Z,63.00
2017-09-23T13:38:33.080Z,62.23
2017-09-23T13:40:34.028Z,58.83
2017-09-23T13:42:35.729Z,64.47
2017-09-23T13:44:36.681Z,61.13
2017-09-23T13:46:37.641Z,57.47
2017-09-23T13:48:38.589Z,63.77
2017-09-23T13:50:39.552Z,56.37
2017-09-23T13:52:40.568Z,62.30
2017-09-23T13:54:41.516Z,68.30
2017-09-23T13:56:42.472Z,64.27
2017-09-23T13:58:43.430Z,71.30
2017-09-23T14:00:44.388Z,62.00
2017-09-23T14:02:45.342Z,72.63
2017-09-23T14:04:46.293Z,61.33
2017-09-23T14:06:47.991Z,71.70
2017-09-23T14:08:48.928Z,67.80
2017-09-23T14:10:49.880Z,66.50
2017-09-23T14:12:50.822Z,68.53
2017-09-23T14:14:51.770Z,84.37
2017-09-23T14:16:52.715Z,79.67
2017-09-23T14:18:53.660Z,87.77
2017-09-23T14:20:54.608Z,96.73
2017-09-23T14:22:55.553Z,96.93
2017-09-23T14:24:56.497Z,99.33
2017-09-23T14:26:57.444Z,104.40
2017-09-23T14:28:58.385Z,90.07
2017-09-23T14:30:59.349Z,99.50
2017-09-23T14:33:00.357Z,103.40
2017-09-23T14:35:02.040Z,100.70
2017-09-23T14:37:03.017Z,108.63
2017-09-23T14:39:03.964Z,106.97
2017-09-23T14:41:04.904Z,113.20
2017-09-23T14:43:05.849Z,104.83
2017-09-23T14:45:06.797Z,102.03
2017-09-23T14:47:07.747Z,109.30
2017-09-23T14:49:08.685Z,101.57
2017-09-23T14:51:09.628Z,100.00
2017-09-23T14:53:10.621Z,109.17
2017-09-23T14:55:11.573Z,124.00
2017-09-23T14:57:13.269Z,120.70
2017-09-23T14:59:14.218Z,122.33
2017-09-23T15:01:15.160Z,126.27
2017-09-23T15:03:16.108Z,120.10
2017-09-23T15:05:17.065Z,117.23
2017-09-23T15:07:18.020Z,117.50
2017-09-23T15:09:18.981Z,124.23
2017-09-23T15:11:19.933Z,112.80
2017-09-23T15:13:20.921Z,115.40
2017-09-23T15:15:22.626Z,113.47
2017-09-23T15:17:23.589Z,120.60
2017-09-23T15:19:24.574Z,115.00
2017-09-23T15:21:26.266Z,128.33
2017-09-23T15:23:27.231Z,112.50
2017-09-23T15:25:28.172Z,118.07
2017-09-23T15:27:29.128Z,125.50
2017-09-23T15:29:30.080Z,113.33
2017-09-23T15:31:31.019Z,116.83
2017-09-23T15:33:31.992Z,119.53
2017-09-23T15:35:32.932Z,119.87
2017-09-23T15:37:33.974Z,121.87
2017-09-23T15:39:34.948Z,129.97
2017-09-23T15:41:36.637Z,126.13
2017-09-23T15:43:37.614Z,129.20
2017-09-23T15:45:38.584Z,119.70
2017-09-23T15:47:39.532Z,123.83
2017-09-23T15:49:40.489Z,129.07
2017-09-23T15:51:42.192Z,124.47
2017-09-23T15:53:43.141Z,127.70
2017-09-23T15:55:44.093Z,125.33
2017-09-23T15:57:45.039Z,131.77
2017-09-23T15:59:46.000Z,126.13
2017-09-23T16:01:46.953Z,119.83
2017-09-23T16:03:54.990Z,129.87
2017-09-23T16:05:56.685Z,127.10
2017-09-23T16:07:57.705Z,124.37
2017-09-23T16:09:59.410Z,123.43
2017-09-23T16:12:00.360Z,119.57
2017-09-23T16:14:01.303Z,125.23
2017-09-23T16:16:02.248Z,124.77
2017-09-23T16:18:03.188Z,127.80
2017-09-23T16:20:04.152Z,118.50
2017-09-23T16:22:05.853Z,120.43
2017-09-23T16:24:06.808Z,123.40
2017-09-23T16:26:08.488Z,132.13
2017-09-23T16:28:09.437Z,137.70
2017-09-23T16:30:10.402Z,128.47
2017-09-23T16:32:11.349Z,132.60
2017-09-23T16:34:12.296Z,122.03
2017-09-23T16:36:13.240Z,130.70
2017-09-23T16:38:14.189Z,119.93
2017-09-23T16:40:15.156Z,134.67
2017-09-23T16:42:16.104Z,120.93
2017-09-23T16:44:17.056Z,122.17
2017-09-23T16:46:18.001Z,127.13
2017-09-23T16:48:18.961Z,137.67
2017-09-23T16:50:19.909Z,124.33
2017-09-23T16:52:21.603Z,126.57
2017-09-23T16:54:22.558Z,131.80
2017-09-23T16:56:23.511Z,128.37
2017-09-23T16:58:24.453Z,126.00
2017-09-23T17:00:25.413Z,127.00
2017-09-23T17:02:26.388Z,125.10
2017-09-23T17:04:27.356Z,126.93
2017-09-23T17:06:29.052Z,128.90
2017-09-23T17:08:30.003Z,125.17
2017-09-23T17:10:30.971Z,129.07
2017-09-23T17:12:31.932Z,121.67
2017-09-23T17:14:32.872Z,139.10
2017-09-23T17:16:33.826Z,130.03
2017-09-23T17:18:34.852Z,126.93
2017-09-23T17:20:35.816Z,128.67
2017-09-23T17:22:36.772Z,133.50
2017-09-23T17:24:37.728Z,126.97
2017-09-23T17:26:39.421Z,128.10
2017-09-23T17:28:40.367Z,141.30
2017-09-23T17:30:41.313Z,134.03
2017-09-23T17:32:42.271Z,124.37
2017-09-23T17:34:43.233Z,126.60
2017-09-23T17:36:44.204Z,133.00
2017-09-23T17:38:45.163Z,131.67
2017-09-23T17:40:46.858Z,127.53
2017-09-23T17:42:47.862Z,129.83
2017-09-23T17:44:48.816Z,132.03
2017-09-23T17:46:49.769Z,127.50
2017-09-23T17:48:51.457Z,124.80
2017-09-23T17:50:52.400Z,139.17
2017-09-23T17:52:53.364Z,117.50
2017-09-23T17:54:54.306Z,125.70
2017-09-23T17:56:55.311Z,129.13
2017-09-23T17:58:56.996Z,125.40
2017-09-23T18:00:57.941Z,128.23
2017-09-23T18:02:58.910Z,124.53
2017-09-23T18:04:59.857Z,126.97
2017-09-23T18:07:00.804Z,125.33
2017-09-23T18:09:01.759Z,126.07
2017-09-23T18:11:02.712Z,121.60
2017-09-23T18:13:03.676Z,121.07
2017-09-23T18:15:04.616Z,117.70
2017-09-23T18:17:05.568Z,118.53
2017-09-23T18:19:06.528Z,119.67
2017-09-23T18:21:08.232Z,122.90
2017-09-23T18:23:09.180Z,124.60
2017-09-23T18:25:10.126Z,125.20
2017-09-23T18:27:11.104Z,123.60
2017-09-23T18:29:12.062Z,115.03
2017-09-23T18:31:13.018Z,123.30
2017-09-23T18:33:13.981Z,123.63
2017-09-23T18:35:15.673Z,129.43
2017-09-23T18:37:16.624Z,126.67
2017-09-23T18:39:17.577Z,138.30
2017-09-23T18:41:18.516Z,128.27
2017-09-23T18:43:19.543Z,121.03
2017-09-23T18:45:20.485Z,122.07
2017-09-23T18:47:21.434Z,123.43
2017-09-23T18:49:22.404Z,124.80
2017-09-23T18:51:23.349Z,111.70
2017-09-23T18:53:24.314Z,115.40
2017-09-23T18:55:25.264Z,120.97
2017-09-23T18:57:26.220Z,113.83
2017-09-23T18:59:27.193Z,124.07
2017-09-23T19:01:28.894Z,118.07
2017-09-23T19:03:30.033Z,115.57
2017-09-23T19:05:31.002Z,119.53
2017-09-23T19:07:31.953Z,121.73
2017-09-23T19:09:32.964Z,112.47
2017-09-23T19:11:33.904Z,109.83
2017-09-23T19:13:34.879Z,109.73
2017-09-23T19:15:35.836Z,113.07
2017-09-23T19:17:36.822Z,119.27
2017-09-23T19:19:38.520Z,115.60
2017-09-23T19:21:40.206Z,120.77
2017-09-23T19:23:41.196Z,120.50
2017-09-23T19:25:42.893Z,122.33
2017-09-23T19:27:43.853Z,126.40
2017-09-23T19:29:44.811Z,122.70
2017-09-23T19:31:45.772Z,114.03
2017-09-23T19:33:46.734Z,117.27
2017-09-23T19:35:47.739Z,121.20
2017-09-23T19:37:48.709Z,114.90
2017-09-23T19:39:49.669Z,107.00
2017-09-23T19:41:50.776Z,105.63
2017-09-23T19:43:51.723Z,104.63
2017-09-23T19:45:52.672Z,116.80
2017-09-23T19:47:53.628Z,104.03
2017-09-23T19:49:54.581Z,109.00
2017-09-23T19:51:55.559Z,108.97
2017-09-23T19:53:57.260Z,110.23
2017-09-23T19:56:05.360Z,106.60
2017-09-23T19:58:06.310Z,108.20
2017-09-23T20:00:07.280Z,121.23
2017-09-23T20:02:08.236Z,111.50
2017-09-23T20:04:09.186Z,56.90
2017-09-23T20:06:10.145Z,89.47
2017-09-23T20:08:11.092Z,75.93
2017-09-23T20:10:12.061Z,79.87
2017-09-23T20:12:13.904Z,92.40
2017-09-23T20:14:14.856Z,94.67
2017-09-23T20:16:15.826Z,83.93
2017-09-23T20:18:16.785Z,85.20
2017-09-23T20:20:17.748Z,104.40
2017-09-23T20:22:18.765Z,98.03
2017-09-23T20:24:19.712Z,98.70
2017-09-23T20:26:20.677Z,113.00
2017-09-23T20:28:21.620Z,73.33
2017-09-23T20:30:22.616Z,70.67
2017-09-23T20:32:23.582Z,61.53
2017-09-23T20:34:25.293Z,57.27
2017-09-23T20:36:26.252Z,67.20
2017-09-23T20:38:27.200Z,101.77
2017-09-23T20:40:28.149Z,71.43
2017-09-23T20:42:29.105Z,73.90
2017-09-23T20:44:30.076Z,87.97
2017-09-23T20:46:31.889Z,84.43
2017-09-23T20:48:32.836Z,76.10
2017-09-23T20:50:33.792Z,76.17
2017-09-23T20:52:34.744Z,90.90
2017-09-23T20:54:36.435Z,89.27
2017-09-23T20:56:37.386Z,83.23
2017-09-23T20:58:39.125Z,82.33
2017-09-23T21:00:40.103Z,72.40
2017-09-23T21:02:41.804Z,75.93
2017-09-23T21:04:42.737Z,77.03
2017-09-23T21:06:43.697Z,78.90
2017-09-23T21:08:44.643Z,73.17
2017-09-23T21:10:45.605Z,72.30
2017-09-23T21:12:46.572Z,70.00
2017-09-23T21:14:47.518Z,73.93
2017-09-23T21:16:48.506Z,90.30
2017-09-23T21:18:49.465Z,87.83
2017-09-23T21:20:50.500Z,85.50
2017-09-23T21:22:51.474Z,107.10
2017-09-23T21:24:52.457Z,98.23
2017-09-23T21:26:53.405Z,106.93
2017-09-23T21:28:54.364Z,110.70
2017-09-23T21:30:56.051Z,102.33
2017-09-23T21:32:57.004Z,108.23
2017-09-23T21:34:57.952Z,101.97
2017-09-23T21:36:58.904Z,107.23
2017-09-23T21:38:59.898Z,100.03
2017-09-23T21:41:01.602Z,105.50
2017-09-23T21:43:02.558Z,118.70
2017-09-23T21:45:04.259Z,112.10
2017-09-23T21:47:05.221Z,115.87
2017-09-23T21:49:06.916Z,110.73
2017-09-23T21:51:07.865Z,110.45
2017-09-23T21:53:08.840Z,120.97
2017-09-23T21:57:41.948Z,123.03
2017-09-23T21:59:42.900Z,114.70
2017-09-23T22:01:43.854Z,120.50
2017-09-23T22:03:44.806Z,119.77
2017-09-23T22:05:45.773Z,111.93
2017-09-23T22:07:46.766Z,125.10
2017-09-23T22:09:47.810Z,119.53
2017-09-23T22:11:48.824Z,106.97
2017-09-23T22:13:50.517Z,118.62
2017-09-23T22:15:51.463Z,115.07
2017-09-23T22:17:52.416Z,110.87
2017-09-23T22:19:53.411Z,104.97
2017-09-23T22:21:54.356Z,107.40
2017-09-23T22:23:55.308Z,102.97
2017-09-23T22:25:56.267Z,111.80
2017-09-23T22:27:57.998Z,98.33
2017-09-23T22:29:58.952Z,97.97
2017-09-23T22:31:59.921Z,94.83
2017-09-23T22:34:01.648Z,81.90
2017-09-23T22:36:02.601Z,93.00
2017-09-23T22:38:03.539Z,89.67
2017-09-23T22:40:05.306Z,83.40
2017-09-23T22:42:06.266Z,76.33
2017-09-23T22:44:07.225Z,78.07
2017-09-23T22:46:08.173Z,70.53
2017-09-23T22:48:09.904Z,69.77
2017-09-23T22:50:10.868Z,68.63
2017-09-23T22:52:11.824Z,68.00
2017-09-23T22:54:12.777Z,68.30
2017-09-23T22:56:13.753Z,70.27
2017-09-23T22:58:14.700Z,66.63
2017-09-23T23:00:15.653Z,68.30
2017-09-23T23:02:16.623Z,62.67
2017-09-23T23:04:17.584Z,63.57
2017-09-23T23:06:18.536Z,55.53
2017-09-23T23:08:19.481Z,60.30
2017-09-23T23:10:20.432Z,56.70
2017-09-23T23:12:21.369Z,61.77
2017-09-23T23:14:22.313Z,55.97
2017-09-23T23:16:23.267Z,60.27
2017-09-23T23:18:24.216Z,56.40
2017-09-23T23:20:25.182Z,56.30
2017-09-23T23:22:26.887Z,59.10
2017-09-23T23:24:27.838Z,56.70
2017-09-23T23:26:28.788Z,51.13
2017-09-23T23:28:29.732Z,51.90
2017-09-23T23:30:30.682Z,52.33
2017-09-23T23:32:31.645Z,50.30
2017-09-23T23:34:32.589Z,47.00
2017-09-23T23:36:33.556Z,54.20
2017-09-23T23:38:35.256Z,45.47
2017-09-23T23:40:36.214Z,46.83
2017-09-23T23:42:37.169Z,51.67
2017-09-23T23:44:38.124Z,44.37
2017-09-23T23:46:39.068Z,44.53
2017-09-23T23:48:40.029Z,47.72
2017-09-23T23:50:40.985Z,46.50
2017-09-23T23:52:41.938Z,46.37
2017-09-23T23:54:43.626Z,43.93
2017-09-23T23:56:44.573Z,49.53
2017-09-23T23:58:45.520Z,47.47
